createdAt,value
2022-10-29T00:02:09.297Z,26.85
2022-10-29T00:04:35.934Z,23.42
2022-10-29T00:07:02.602Z,25.25
2022-10-29T00:09:28.615Z,27.48
2022-10-29T00:11:55.270Z,26.17
2022-10-29T00:14:21.301Z,24.05
2022-10-29T00:16:47.302Z,20.17
2022-10-29T00:19:13.906Z,19.65
2022-10-29T00:21:39.959Z,25.98
2022-10-29T00:24:08.799Z,22.17
2022-10-29T00:26:35.427Z,18.60
2022-10-29T00:29:01.455Z,21.27
2022-10-29T00:31:27.636Z,16.10
2022-10-29T00:33:55.057Z,16.75
2022-10-29T00:36:23.189Z,19.67
2022-10-29T00:38:49.946Z,17.73
2022-10-29T00:41:18.944Z,23.40
2022-10-29T00:43:48.301Z,19.98
2022-10-29T00:46:21.829Z,17.95
2022-10-29T00:48:51.341Z,20.08
2022-10-29T00:53:47.726Z,20.50
2022-10-29T00:56:15.556Z,19.63
2022-10-29T00:58:43.398Z,18.70
2022-10-29T01:01:09.804Z,18.52
2022-10-29T01:03:37.790Z,18.42
2022-10-29T01:06:05.351Z,19.42
2022-10-29T01:08:31.377Z,20.35
2022-10-29T01:11:08.185Z,18.88
2022-10-29T01:13:45.207Z,20.02
2022-10-29T01:16:25.773Z,15.40
2022-10-29T01:18:58.764Z,21.70
2022-10-29T01:21:38.880Z,20.05
2022-10-29T01:24:40.397Z,21.63
2022-10-29T01:27:47.274Z,18.73
2022-10-29T01:30:20.303Z,19.58
2022-10-29T01:33:06.866Z,16.30
2022-10-29T01:35:44.113Z,17.20
2022-10-29T01:38:23.426Z,17.23
2022-10-29T01:40:57.216Z,22.40
2022-10-29T01:43:30.993Z,23.80
2022-10-29T01:46:01.013Z,24.70
2022-10-29T01:48:33.225Z,30.20
2022-10-29T01:51:04.120Z,30.80
2022-10-29T01:53:33.887Z,37.30
2022-10-29T01:55:59.886Z,37.17
2022-10-29T01:58:26.018Z,46.25
2022-10-29T02:01:01.018Z,42.92
2022-10-29T02:03:36.955Z,50.90
2022-10-29T02:06:10.637Z,69.68
2022-10-29T02:08:47.158Z,90.03
2022-10-29T02:11:18.356Z,55.83
2022-10-29T02:13:51.917Z,28.33
2022-10-29T02:16:20.174Z,32.55
2022-10-29T02:18:48.319Z,33.17
2022-10-29T02:21:14.958Z,34.05
2022-10-29T02:23:41.597Z,19.05
2022-10-29T02:26:07.656Z,17.50
2022-10-29T02:28:33.762Z,18.48
2022-10-29T02:31:00.380Z,23.90
2022-10-29T02:33:26.419Z,28.83
2022-10-29T02:35:53.155Z,26.02
2022-10-29T02:38:19.882Z,25.80
2022-10-29T02:40:45.933Z,30.48
2022-10-29T02:43:12.080Z,28.52
2022-10-29T02:45:38.777Z,31.20
2022-10-29T02:48:05.338Z,27.80
2022-10-29T02:50:31.442Z,30.35
2022-10-29T02:52:58.691Z,31.92
2022-10-29T02:55:24.784Z,25.90
2022-10-29T02:57:50.765Z,29.83
2022-10-29T03:00:17.903Z,31.27
2022-10-29T03:02:44.111Z,29.40
2022-10-29T03:05:10.401Z,26.20
2022-10-29T03:07:37.644Z,31.92
2022-10-29T03:10:05.444Z,38.38
2022-10-29T03:12:31.761Z,34.25
2022-10-29T03:14:58.413Z,29.42
2022-10-29T03:17:24.674Z,33.85
2022-10-29T03:19:50.799Z,32.60
2022-10-29T03:22:17.447Z,34.67
2022-10-29T03:24:43.524Z,30.30
2022-10-29T03:27:10.264Z,45.78
2022-10-29T03:29:36.870Z,42.17
2022-10-29T03:32:03.064Z,30.98
2022-10-29T03:34:29.194Z,29.83
2022-10-29T03:36:55.799Z,32.42
2022-10-29T03:39:21.814Z,43.65
2022-10-29T03:41:47.819Z,43.50
2022-10-29T03:44:15.062Z,38.55
2022-10-29T03:48:07.245Z,40.80
2022-10-29T03:50:34.655Z,36.28
2022-10-29T03:53:01.415Z,40.95
2022-10-29T03:55:28.247Z,37.13
2022-10-29T03:57:56.184Z,33.40
2022-10-29T04:00:23.220Z,31.13
2022-10-29T04:02:49.937Z,30.50
2022-10-29T04:05:18.682Z,31.27
2022-10-29T04:07:45.411Z,28.80
2022-10-29T04:10:12.206Z,36.60
2022-10-29T04:12:39.545Z,36.50
2022-10-29T04:15:07.274Z,32.70
2022-10-29T04:17:34.002Z,40.28
2022-10-29T04:20:01.420Z,47.95
2022-10-29T04:30:52.494Z,39.10
2022-10-29T04:33:19.676Z,29.30
2022-10-29T04:35:51.850Z,34.47
2022-10-29T04:38:21.269Z,36.33
2022-10-29T04:40:48.329Z,31.50
2022-10-29T04:43:15.261Z,29.45
2022-10-29T04:48:10.787Z,32.40
2022-10-29T04:50:38.312Z,36.95
2022-10-29T04:53:06.400Z,31.07
2022-10-29T04:55:36.323Z,37.47
2022-10-29T04:58:03.056Z,37.63
2022-10-29T05:00:30.412Z,34.67
2022-10-29T05:02:57.350Z,33.38
2022-10-29T05:05:24.761Z,37.50
2022-10-29T05:07:56.922Z,36.30
2022-10-29T05:10:23.880Z,35.13
2022-10-29T05:12:58.310Z,35.97
2022-10-29T05:15:26.730Z,33.55
2022-10-29T05:17:53.678Z,36.03
2022-10-29T05:20:20.608Z,36.33
2022-10-29T05:22:47.948Z,44.45
2022-10-29T05:25:15.116Z,50.92
2022-10-29T05:27:41.939Z,53.65
2022-10-29T05:30:11.153Z,54.90
2022-10-29T05:32:37.954Z,54.33
2022-10-29T05:35:05.340Z,49.67
2022-10-29T05:37:32.755Z,61.30
2022-10-29T05:39:59.483Z,45.92
2022-10-29T05:42:26.210Z,49.17
2022-10-29T05:44:53.540Z,47.33
2022-10-29T05:47:21.612Z,44.17
2022-10-29T05:49:48.373Z,48.73
2022-10-29T05:52:15.696Z,45.63
2022-10-29T05:54:42.427Z,43.55
2022-10-29T05:57:09.147Z,38.30
2022-10-29T05:59:36.487Z,49.83
2022-10-29T06:02:03.295Z,46.13
2022-10-29T06:04:31.427Z,44.22
2022-10-29T06:06:58.802Z,42.53
2022-10-29T06:09:25.573Z,52.85
2022-10-29T06:11:52.313Z,46.22
2022-10-29T06:14:19.643Z,50.25
2022-10-29T06:16:46.480Z,52.63
2022-10-29T06:19:13.253Z,52.60
2022-10-29T06:21:42.011Z,51.22
2022-10-29T06:24:09.185Z,40.53
2022-10-29T06:26:35.926Z,44.55
2022-10-29T06:29:03.485Z,47.95
2022-10-29T06:31:30.214Z,43.88
2022-10-29T06:33:57.108Z,44.30
2022-10-29T06:36:24.534Z,42.83
2022-10-29T06:38:52.616Z,41.33
2022-10-29T06:41:19.426Z,37.90
2022-10-29T06:43:46.809Z,43.70
2022-10-29T06:46:13.549Z,39.03
2022-10-29T06:48:40.308Z,36.90
2022-10-29T06:51:07.773Z,42.85
2022-10-29T06:53:34.581Z,40.80
2022-10-29T06:56:02.736Z,41.78
2022-10-29T06:58:30.054Z,41.35
2022-10-29T07:03:28.458Z,46.58
2022-10-29T07:05:56.584Z,52.65
2022-10-29T07:08:23.498Z,38.92
2022-10-29T07:10:50.933Z,42.40
2022-10-29T07:13:19.719Z,43.47
2022-10-29T07:15:46.610Z,46.92
2022-10-29T07:18:13.372Z,44.03
2022-10-29T07:20:42.450Z,50.03
2022-10-29T07:23:09.947Z,42.40
2022-10-29T07:25:37.916Z,43.33
2022-10-29T07:28:07.264Z,47.97
2022-10-29T07:30:35.662Z,47.17
2022-10-29T07:33:02.467Z,42.35
2022-10-29T07:35:29.894Z,44.55
2022-10-29T07:38:00.378Z,37.30
2022-10-29T07:40:30.887Z,40.55
2022-10-29T07:42:57.998Z,40.85
2022-10-29T07:45:25.085Z,38.72
2022-10-29T07:48:02.765Z,43.60
2022-10-29T07:50:30.970Z,44.85
2022-10-29T07:52:59.481Z,38.13
2022-10-29T07:55:26.467Z,37.15
2022-10-29T07:57:56.652Z,41.50
2022-10-29T08:00:24.793Z,39.92
2022-10-29T08:02:52.956Z,45.72
2022-10-29T08:05:21.181Z,37.17
2022-10-29T08:10:15.854Z,39.20
2022-10-29T08:12:48.874Z,37.15
2022-10-29T08:15:16.298Z,31.98
2022-10-29T08:17:43.313Z,34.00
2022-10-29T08:20:10.590Z,29.90
2022-10-29T08:22:39.502Z,31.98
2022-10-29T08:25:06.736Z,32.53
2022-10-29T08:27:33.508Z,25.17
2022-10-29T08:30:00.914Z,27.92
2022-10-29T08:32:27.751Z,28.95
2022-10-29T08:34:54.520Z,25.77
2022-10-29T08:37:21.924Z,28.65
2022-10-29T08:39:49.990Z,24.42
2022-10-29T08:42:30.104Z,26.77
2022-10-29T08:45:15.588Z,24.15
2022-10-29T08:47:56.470Z,28.27
2022-10-29T08:50:28.615Z,22.65
2022-10-29T08:53:19.350Z,23.48
2022-10-29T08:55:46.254Z,19.30
2022-10-29T08:58:21.474Z,20.42
2022-10-29T09:00:52.877Z,20.27
2022-10-29T09:03:19.644Z,22.77
2022-10-29T09:05:53.554Z,24.00
2022-10-29T09:08:35.692Z,23.23
2022-10-29T09:11:13.840Z,21.15
2022-10-29T09:16:25.001Z,18.10
2022-10-29T09:19:08.411Z,22.83
2022-10-29T09:21:42.654Z,22.95
2022-10-29T09:24:14.863Z,20.42
2022-10-29T09:26:52.718Z,28.42
2022-10-29T09:29:36.278Z,18.95
2022-10-29T09:32:07.751Z,20.33
2022-10-29T09:34:40.066Z,21.63
2022-10-29T09:37:15.677Z,21.35
2022-10-29T09:39:45.818Z,21.63
2022-10-29T09:42:18.144Z,17.48
2022-10-29T09:44:51.991Z,19.00
2022-10-29T09:47:31.635Z,18.73
2022-10-29T09:50:10.066Z,18.98
2022-10-29T09:52:39.815Z,16.03
2022-10-29T09:55:18.319Z,18.75
2022-10-29T09:57:46.533Z,17.17
2022-10-29T10:02:48.319Z,22.08
2022-10-29T10:05:20.669Z,16.55
2022-10-29T10:08:04.858Z,18.02
2022-10-29T10:10:33.112Z,16.20
2022-10-29T10:13:04.795Z,17.55
2022-10-29T10:15:34.366Z,12.93
2022-10-29T10:18:03.188Z,18.23
2022-10-29T10:23:03.170Z,16.73
2022-10-29T10:25:37.863Z,16.48
2022-10-29T10:28:16.690Z,17.80
2022-10-29T10:30:43.789Z,15.50
2022-10-29T10:33:25.597Z,17.50
2022-10-29T10:35:54.413Z,19.60
2022-10-29T10:38:21.998Z,17.05
2022-10-29T10:40:56.385Z,19.15
2022-10-29T10:43:26.406Z,19.75
2022-10-29T10:45:58.052Z,20.92
2022-10-29T10:48:32.509Z,17.67
2022-10-29T10:51:19.881Z,15.20
2022-10-29T10:53:47.449Z,17.75
2022-10-29T10:56:18.701Z,16.38
2022-10-29T10:58:53.478Z,14.82
2022-10-29T11:01:25.623Z,12.90
2022-10-29T11:04:00.581Z,18.05
2022-10-29T11:06:32.182Z,13.82
2022-10-29T11:09:07.010Z,18.38
2022-10-29T11:11:37.620Z,12.43
2022-10-29T11:14:12.890Z,15.65
2022-10-29T11:16:45.372Z,14.10
2022-10-29T11:19:20.607Z,22.02
2022-10-29T11:21:58.218Z,15.98
2022-10-29T11:24:30.296Z,15.60
2022-10-29T11:27:02.941Z,18.60
2022-10-29T11:29:40.020Z,16.45
2022-10-29T11:32:15.234Z,20.63
2022-10-29T11:34:48.354Z,15.85
2022-10-29T11:37:22.886Z,13.48
2022-10-29T11:39:54.886Z,16.20
2022-10-29T11:42:22.235Z,21.40
2022-10-29T11:44:51.078Z,21.13
2022-10-29T11:47:33.201Z,15.98
2022-10-29T11:50:14.389Z,18.80
2022-10-29T11:52:47.777Z,16.15
2022-10-29T11:55:30.332Z,19.17
2022-10-29T11:58:01.811Z,15.35
2022-10-29T12:00:46.365Z,17.77
2022-10-29T12:03:25.532Z,18.13
2022-10-29T12:06:03.218Z,20.73
2022-10-29T12:08:44.207Z,20.48
2022-10-29T12:11:21.587Z,19.05
2022-10-29T12:13:58.389Z,18.95
2022-10-29T12:16:34.970Z,19.42
2022-10-29T12:19:12.406Z,18.50
2022-10-29T12:21:47.001Z,16.75
2022-10-29T12:24:25.190Z,15.38
2022-10-29T12:27:00.186Z,17.05
2022-10-29T12:29:37.831Z,18.95
2022-10-29T12:32:11.828Z,12.90
2022-10-29T12:34:44.950Z,15.25
2022-10-29T12:37:22.245Z,14.23
2022-10-29T12:39:53.209Z,14.68
2022-10-29T12:42:24.992Z,16.63
2022-10-29T12:45:03.804Z,15.55
2022-10-29T12:47:37.428Z,14.48
2022-10-29T12:50:16.678Z,19.80
2022-10-29T12:52:49.367Z,15.32
2022-10-29T12:55:17.568Z,15.18
2022-10-29T12:57:44.929Z,13.57
2022-10-29T13:00:43.794Z,14.07
2022-10-29T13:03:12.581Z,15.07
2022-10-29T13:05:42.177Z,15.55
2022-10-29T13:08:29.031Z,19.75
2022-10-29T13:10:57.281Z,14.30
2022-10-29T13:13:51.630Z,15.70
2022-10-29T13:16:24.631Z,12.32
2022-10-29T13:19:08.622Z,17.10
2022-10-29T13:21:58.186Z,17.85
2022-10-29T13:24:25.962Z,13.07
2022-10-29T13:27:02.452Z,19.83
2022-10-29T13:29:47.385Z,15.50
2022-10-29T13:32:35.098Z,14.40
2022-10-29T13:35:05.973Z,12.23
2022-10-29T13:38:09.438Z,14.13
2022-10-29T13:40:55.698Z,14.75
2022-10-29T13:43:23.947Z,10.98
2022-10-29T13:46:00.955Z,17.63
2022-10-29T13:48:31.472Z,11.50
2022-10-29T13:51:02.744Z,13.60
2022-10-29T13:53:38.105Z,16.30
2022-10-29T13:56:10.651Z,14.98
2022-10-29T13:58:42.890Z,12.10
2022-10-29T14:01:14.395Z,13.93
2022-10-29T14:03:54.170Z,16.85
2022-10-29T14:06:25.761Z,14.38
2022-10-29T14:08:58.081Z,11.27
2022-10-29T14:11:28.223Z,12.23
2022-10-29T14:13:59.417Z,12.98
2022-10-29T14:16:29.657Z,16.55
2022-10-29T14:18:56.988Z,17.40
2022-10-29T14:21:26.885Z,15.85
2022-10-29T14:23:58.455Z,15.75
2022-10-29T14:26:26.977Z,13.13
2022-10-29T14:28:53.985Z,13.77
2022-10-29T14:31:22.526Z,14.60
2022-10-29T14:33:55.011Z,12.57
2022-10-29T14:36:29.295Z,13.70
2022-10-29T14:39:00.116Z,12.82
2022-10-29T14:41:29.060Z,12.23
2022-10-29T14:44:04.725Z,15.88
2022-10-29T14:46:34.642Z,13.60
2022-10-29T14:49:10.693Z,14.02
2022-10-29T14:51:41.269Z,14.48
2022-10-29T14:54:19.311Z,15.20
2022-10-29T14:56:50.074Z,13.80
2022-10-29T14:59:23.759Z,18.40
2022-10-29T15:01:57.117Z,14.25
2022-10-29T15:04:29.691Z,19.27
2022-10-29T15:07:15.862Z,17.88
2022-10-29T15:09:45.110Z,15.32
2022-10-29T15:14:50.073Z,18.05
2022-10-29T15:17:21.622Z,16.30
2022-10-29T15:19:53.492Z,17.13
2022-10-29T15:22:26.321Z,19.52
2022-10-29T15:24:55.321Z,20.25
2022-10-29T15:27:22.793Z,16.15
2022-10-29T15:29:54.429Z,16.42
2022-10-29T15:32:23.315Z,14.48
2022-10-29T15:34:52.237Z,17.35
2022-10-29T15:37:38.946Z,18.58
2022-10-29T15:40:10.917Z,16.58
2022-10-29T15:42:37.846Z,18.33
2022-10-29T15:45:25.509Z,16.17
2022-10-29T15:47:57.025Z,16.73
2022-10-29T15:50:26.463Z,13.77
2022-10-29T15:52:57.613Z,14.30
2022-10-29T15:55:29.377Z,19.38
2022-10-29T15:58:02.477Z,12.68
2022-10-29T16:00:30.564Z,11.80
2022-10-29T16:05:27.761Z,15.15
2022-10-29T16:07:59.394Z,14.18
2022-10-29T16:10:26.750Z,15.50
2022-10-29T16:12:53.608Z,13.15
2022-10-29T16:15:20.583Z,13.00
2022-10-29T16:17:48.066Z,15.05
2022-10-29T16:20:17.130Z,14.30
2022-10-29T16:22:45.373Z,16.48
2022-10-29T16:27:45.335Z,15.27
2022-10-29T16:30:13.437Z,17.63
2022-10-29T16:32:41.433Z,15.70
2022-10-29T16:35:14.039Z,17.45
2022-10-29T16:37:41.412Z,18.92
2022-10-29T16:40:09.565Z,16.02
2022-10-29T16:42:37.669Z,18.92
2022-10-29T16:47:32.832Z,15.95
2022-10-29T16:49:59.544Z,19.02
2022-10-29T16:52:29.434Z,18.02
2022-10-29T16:54:56.878Z,14.93
2022-10-29T16:57:23.650Z,15.40
2022-10-29T16:59:52.340Z,14.70
2022-10-29T17:02:19.078Z,14.38
2022-10-29T17:04:45.933Z,15.55
2022-10-29T17:07:13.269Z,19.05
2022-10-29T17:09:40.007Z,15.25
2022-10-29T17:12:07.242Z,18.50
2022-10-29T17:14:34.723Z,17.73
2022-10-29T17:17:02.807Z,18.40
2022-10-29T17:19:29.638Z,16.05
2022-10-29T17:21:57.122Z,13.63
2022-10-29T17:24:24.238Z,16.27
2022-10-29T17:26:50.977Z,16.50
2022-10-29T17:29:18.715Z,16.05
2022-10-29T17:31:45.469Z,15.30
2022-10-29T17:34:13.555Z,18.60
2022-10-29T17:36:40.893Z,20.15
2022-10-29T17:39:10.487Z,17.67
2022-10-29T17:41:37.534Z,18.77
2022-10-29T17:44:05.183Z,14.85
2022-10-29T17:46:32.539Z,15.38
2022-10-29T17:48:59.361Z,22.95
2022-10-29T17:51:28.083Z,19.38
2022-10-29T17:53:55.139Z,22.40
2022-10-29T17:56:21.889Z,15.45
2022-10-29T17:58:49.435Z,16.27
2022-10-29T18:01:16.619Z,20.38
2022-10-29T18:03:43.948Z,19.55
2022-10-29T18:06:12.986Z,14.83
2022-10-29T18:08:42.541Z,14.48
2022-10-29T18:11:11.356Z,15.40
2022-10-29T18:13:40.678Z,15.27
2022-10-29T18:16:08.114Z,15.15
2022-10-29T18:18:48.003Z,20.45
2022-10-29T18:21:24.035Z,19.02
2022-10-29T18:23:52.631Z,16.93
2022-10-29T18:26:22.199Z,14.32
2022-10-29T18:28:59.789Z,17.90
2022-10-29T18:31:27.961Z,17.75
2022-10-29T18:36:22.123Z,16.98
2022-10-29T18:38:54.688Z,15.38
2022-10-29T18:41:22.791Z,17.15
2022-10-29T18:43:49.841Z,18.65
2022-10-29T18:46:17.518Z,23.42
2022-10-29T18:48:47.072Z,20.83
2022-10-29T18:51:16.036Z,22.40
2022-10-29T18:56:13.175Z,23.33
2022-10-29T18:58:40.420Z,20.15
2022-10-29T19:01:09.717Z,18.15
2022-10-29T19:03:37.552Z,23.05
2022-10-29T19:06:06.591Z,24.95
2022-10-29T19:08:34.699Z,21.35
2022-10-29T19:11:03.859Z,20.08
2022-10-29T19:13:32.294Z,16.55
2022-10-29T19:16:03.125Z,21.15
2022-10-29T19:18:31.174Z,22.15
2022-10-29T19:21:02.978Z,18.08
2022-10-29T19:23:30.365Z,21.17
2022-10-29T19:25:57.427Z,15.98
2022-10-29T19:28:24.235Z,23.95
2022-10-29T19:30:52.938Z,17.33
2022-10-29T19:33:19.696Z,22.98
2022-10-29T19:35:46.514Z,20.50
2022-10-29T19:38:13.858Z,30.08
2022-10-29T19:40:41.713Z,16.85
2022-10-29T19:43:08.463Z,18.08
2022-10-29T19:45:38.584Z,14.15
2022-10-29T19:48:07.694Z,23.63
2022-10-29T19:50:35.765Z,22.33
2022-10-29T19:53:02.927Z,18.95
2022-10-29T19:55:29.961Z,16.45
2022-10-29T19:57:57.351Z,14.50
2022-10-29T20:00:24.206Z,21.02
2022-10-29T20:02:51.572Z,21.92
2022-10-29T20:05:20.621Z,20.47
2022-10-29T20:07:47.921Z,22.20
2022-10-29T20:10:15.041Z,21.40
2022-10-29T20:12:42.377Z,17.08
2022-10-29T20:15:09.729Z,22.08
2022-10-29T20:17:36.557Z,16.40
2022-10-29T20:20:04.601Z,13.65
2022-10-29T20:22:32.715Z,22.08
2022-10-29T20:24:59.439Z,21.02
2022-10-29T20:27:26.817Z,24.73
2022-10-29T20:29:53.557Z,20.20
2022-10-29T20:32:20.331Z,19.55
2022-10-29T20:34:47.695Z,19.40
2022-10-29T20:37:14.462Z,19.85
2022-10-29T20:39:42.553Z,18.23
2022-10-29T20:42:10.011Z,20.13
2022-10-29T20:44:36.784Z,21.95
2022-10-29T20:47:03.750Z,19.33
2022-10-29T20:49:31.491Z,17.75
2022-10-29T20:51:58.254Z,18.42
2022-10-29T20:54:24.979Z,19.80
2022-10-29T20:56:54.602Z,15.70
2022-10-29T20:59:21.321Z,20.65
2022-10-29T21:01:48.141Z,18.95
2022-10-29T21:04:15.784Z,18.02
2022-10-29T21:06:42.590Z,18.08
2022-10-29T21:09:09.368Z,19.20
2022-10-29T21:11:36.750Z,19.08
2022-10-29T21:14:04.839Z,18.02
2022-10-29T21:16:31.651Z,18.17
2022-10-29T21:19:00.605Z,19.40
2022-10-29T21:21:28.574Z,16.52
2022-10-29T21:23:56.754Z,18.07
2022-10-29T21:26:25.769Z,17.33
2022-10-29T21:28:53.438Z,16.48
2022-10-29T21:31:22.785Z,17.90
2022-10-29T21:33:50.355Z,19.08
2022-10-29T21:36:17.382Z,16.27
2022-10-29T21:38:44.140Z,19.30
2022-10-29T21:41:11.536Z,17.10
2022-10-29T21:43:39.035Z,17.00
2022-10-29T21:46:06.558Z,16.65
2022-10-29T21:48:35.406Z,17.02
2022-10-29T21:51:03.852Z,17.48
2022-10-29T21:53:30.690Z,14.15
2022-10-29T21:55:58.597Z,19.27
2022-10-29T21:58:25.870Z,18.33
2022-10-29T22:01:00.681Z,15.23
2022-10-29T22:03:30.170Z,15.40
2022-10-29T22:08:29.367Z,12.63
2022-10-29T22:10:57.185Z,12.65
2022-10-29T22:13:23.959Z,21.77
2022-10-29T22:15:51.293Z,16.02
2022-10-29T22:18:18.026Z,16.30
2022-10-29T22:20:44.765Z,17.55
2022-10-29T22:23:13.522Z,15.23
2022-10-29T22:25:40.270Z,13.43
2022-10-29T22:28:06.991Z,15.95
2022-10-29T22:30:34.334Z,19.80
2022-10-29T22:33:01.939Z,17.23
2022-10-29T22:35:28.618Z,17.88
2022-10-29T22:37:56.247Z,18.00
2022-10-29T22:40:24.455Z,14.23
2022-10-29T22:42:51.179Z,22.08
2022-10-29T22:45:18.602Z,19.75
2022-10-29T22:47:45.369Z,20.05
2022-10-29T22:50:12.159Z,16.35
2022-10-29T22:55:07.987Z,14.00
2022-10-29T22:57:36.069Z,19.42
2022-10-29T23:00:03.927Z,15.93
2022-10-29T23:02:30.818Z,21.35
2022-10-29T23:04:57.573Z,16.10
2022-10-29T23:07:24.951Z,13.65
2022-10-29T23:09:51.701Z,13.48
2022-10-29T23:12:18.442Z,18.90
2022-10-29T23:14:47.113Z,15.82
2022-10-29T23:17:19.573Z,16.40
2022-10-29T23:19:46.999Z,17.50
2022-10-29T23:24:46.003Z,13.50
2022-10-29T23:27:12.841Z,13.40
2022-10-29T23:29:39.625Z,15.13
2022-10-29T23:32:08.446Z,17.27
2022-10-29T23:34:35.130Z,17.63
2022-10-29T23:37:04.312Z,17.23
2022-10-29T23:39:34.474Z,21.30
2022-10-29T23:42:01.239Z,16.75
2022-10-29T23:44:27.987Z,16.92
2022-10-29T23:46:55.322Z,20.05
2022-10-29T23:49:23.451Z,14.27
2022-10-29T23:51:50.169Z,15.45
2022-10-29T23:54:17.494Z,16.42
2022-10-29T23:56:44.196Z,15.30
2022-10-29T23:59:10.933Z,15.82
